Lee's Summit, MO

9:57 AM CST on December 08, 2016 (GMT -0600)
Lee's Summit Municipal | | Change Station

Elev 1004 ft 38.96 °N, 94.37 °W | Updated 4 minutes ago

Clear
Clear
18 °F
Feels Like 4 °F
N
14
Wind Variable Wind from NW

Today
High -- | Low -- °F
--% Chance of Precip.
Yesterday
High -- | Low -- °F
Precip. -- in
Pressure 30.67 in
Visibility 10.0 miles
Clouds Clear
Windchill 4 °F
Dew Point 8 °F
Humidity 65%
Rainfall 0.00 in
Snow Depth Not available.
7:24 AM 4:55 PM
Waxing Gibbous, 64% visible
METAR KLXT 081553Z AUTO 31012KT 10SM CLR M08/M13 A3061 RMK AO2 SLP384 T10781133 TSNO
Pressure 30.67 in
Visibility 10.0 miles
Clouds Clear
Windchill 4 °F
Dew Point 8 °F
Humidity 65%
Rainfall 0.00 in
Snow Depth Not available.
7:24 AM 4:55 PM
Waxing Gibbous, 64% visible
METAR KLXT 081553Z AUTO 31012KT 10SM CLR M08/M13 A3061 RMK AO2 SLP384 T10781133 TSNO

10-Day Weather Forecast

Almanac

Astronomy

Dec. 08, 2016 Rise Set
Actual Time
Civil Twilight
Nautical Twilight
Astronomical Twilight
Moon
Length of Visible Light
Length of Day
Tomorrow will be .
, % of the Moon is Illuminated

Today's Extremes

State Highs State Lows

Community

WunderPhotos

Upload Photos

1,956,274 photos uploaded!

WunderBlog® & News

Nearby

Air Quality

  Air Quality AQ Index Pollutant
Not available.

Snow Depth

Station Depth Elevation

Earthquake Activity

City Distance Mag. Time & Date
Minimum magnitude displayed is 2.5.

Coastal Water Temperatures

Place Temperature

Stations

Nearby Weather Stations

Station Location Temp. Windchill Dew Point Humidity Wind Precip. Elev Updated Type
                   

Watches & Warnings

There are currently no watches in effect.